createdAt,value
2023-03-05T00:20:29.295Z,69
2023-03-05T00:49:53.590Z,68
2023-03-05T01:19:10.156Z,68
2023-03-05T01:48:31.047Z,70
2023-03-05T02:17:56.898Z,69
2023-03-05T02:47:18.220Z,69
2023-03-05T03:16:40.663Z,69
2023-03-05T03:45:48.920Z,70
2023-03-05T04:15:03.377Z,73
2023-03-05T04:44:15.637Z,70
2023-03-05T05:13:27.597Z,70
2023-03-05T05:42:45.673Z,70
2023-03-05T06:12:03.627Z,70
2023-03-05T06:41:19.822Z,70
2023-03-05T07:10:32.630Z,74
2023-03-05T07:39:47.688Z,74
2023-03-05T08:08:42.876Z,75
2023-03-05T08:37:58.673Z,73
2023-03-05T09:07:19.181Z,72
2023-03-05T09:36:35.864Z,73
2023-03-05T10:05:53.905Z,71
2023-03-05T10:35:09.866Z,68
2023-03-05T11:04:26.176Z,68
2023-03-05T11:33:51.794Z,66
2023-03-05T12:03:14.392Z,68
2023-03-05T12:32:32.597Z,66
2023-03-05T13:01:40.199Z,67
2023-03-05T13:31:01.307Z,66
2023-03-05T14:00:16.613Z,64
2023-03-05T14:29:29.988Z,65
2023-03-05T14:58:50.096Z,65
2023-03-05T15:28:08.936Z,65
2023-03-05T15:57:23.806Z,65
2023-03-05T16:26:42.123Z,65
2023-03-05T16:55:39.505Z,65
2023-03-05T17:24:55.029Z,65
2023-03-05T17:54:06.174Z,66
2023-03-05T18:23:25.111Z,66
2023-03-05T18:52:42.721Z,66
2023-03-05T19:21:46.020Z,67
2023-03-05T19:51:03.655Z,67
2023-03-05T20:20:25.720Z,67
2023-03-05T20:49:45.621Z,68
2023-03-05T21:19:11.671Z,68
2023-03-05T21:48:23.421Z,68
2023-03-05T22:17:40.873Z,68
2023-03-05T22:46:56.189Z,68
2023-03-05T23:16:10.494Z,69
2023-03-05T23:45:22.047Z,69
